ADDS METAR Data INFO
IDs: Format: Raw Decoded Include TAF

Data at: 1014 UTC 14 Dec 2017

KWYS 140955Z AUTO 22003KT 10SM CLR M16/M18 A3035 RMK AO2
KWYS 140930Z AUTO 00000KT 10SM CLR M16/M17 A3036 RMK AO2
KWYS 140915Z AUTO 00000KT 10SM FEW029 M18/M20 A3035 RMK AO2
KWYS 140855Z AUTO 00000KT 10SM FEW030 M18/M20 A3035 RMK AO2
KWYS 140835Z AUTO 00000KT 10SM FEW027 M17/M19 A3034 RMK AO2
KWYS 140815Z AUTO 00000KT 10SM SCT027 M17/M18 A3033 RMK AO2
KWYS 140755Z AUTO 00000KT 10SM CLR M16/M17 A3032 RMK AO2
KWYS 140730Z AUTO 00000KT 10SM CLR M15/M17 A3032 RMK AO2
KWYS 140710Z AUTO 00000KT 10SM CLR M15/M17 A3031 RMK AO2
KWYS 140655Z AUTO 19003KT 10SM CLR M13/M14 A3031 RMK AO2
KWYS 140635Z AUTO 00000KT 10SM CLR M13/M14 A3031 RMK AO2
KWYS 140615Z AUTO 00000KT 10SM CLR M12/M13 A3032 RMK AO2
KWYS 140550Z AUTO 15003KT 8SM CLR M10/M11 A3031 RMK AO2
KWYS 140530Z AUTO 00000KT 10SM SCT031 SCT036 SCT045 M09/M09 A3031 RMK AO2
KWYS 140515Z AUTO 22004KT 10SM SCT030 OVC038 M08/M09 A3032 RMK AO2
KWYS 140455Z AUTO 22003KT 10SM OVC040 M07/M07 A3031 RMK AO2
KWYS 140435Z AUTO 00000KT 10SM OVC041 M07/M07 A3030 RMK AO2
KWYS 140415Z AUTO 19004KT 10SM OVC040 M07/M08 A3030 RMK AO2
KWYS 140355Z AUTO 00000KT 10SM OVC039 M07/M07 A3030 RMK AO2
KWYS 140335Z AUTO 00000KT 10SM OVC042 M08/M08 A3029 RMK AO2
KWYS 140315Z AUTO 00000KT 10SM OVC044 M07/M08 A3028 RMK AO2
KWYS 140255Z AUTO 00000KT 10SM BKN043 OVC049 M06/M07 A3027 RMK AO2
KWYS 140235Z AUTO 00000KT 10SM SCT044 BKN050 OVC055 M07/M07 A3027 RMK AO2
KWYS 140210Z AUTO 00000KT 10SM BKN055 OVC065 M06/M07 A3025 RMK AO2
KWYS 140150Z AUTO 00000KT 10SM FEW004 SCT040 OVC065 M07/M07 A3024 RMK AO2
KWYS 140135Z AUTO 00000KT 4SM -SN FEW004 SCT022 BKN037 M06/M07 A3024 RMK AO2
KWYS 140115Z AUTO 00000KT 9SM -UP FEW029 OVC037 M06/M06 A3023 RMK AO2
KWYS 140055Z AUTO 00000KT 10SM FEW029 BKN039 OVC046 M06/M06 A3022 RMK AO2
KWYS 140035Z AUTO 00000KT 10SM BKN034 OVC046 M05/M06 A3021 RMK AO2
KWYS 140015Z AUTO 00000KT 10SM BKN036 OVC042 M05/M06 A3020 RMK AO2
KWYS 132355Z AUTO 00000KT 10SM OVC041 M05/M06 A3020 RMK AO2 P0001
KWYS 132330Z AUTO 00000KT 10SM -UP FEW040 OVC047 M05/M06 A3019 RMK AO2
KWYS 132310Z AUTO 00000KT 9SM -UP FEW025 SCT038 BKN050 M05/M06 A3019 RMK AO2
KWYS 132255Z AUTO 00000KT 10SM FEW027 SCT037 BKN070 M05/M07 A3019 RMK AO2 P0001
KWYS 132235Z AUTO 00000KT 10SM FEW003 SCT048 BKN055 M05/M07 A3019 RMK AO2
KWYS 132215Z AUTO 00000KT 10SM BKN049 BKN055 BKN080 M05/M07 A3019 RMK AO2
KWYS 132155Z AUTO 00000KT 9SM FEW060 SCT070 BKN085 M05/M07 A3019 RMK AO2 P0001
KWYS 132135Z AUTO 21003KT 5SM -SN FEW040 FEW060 SCT070 M05/M07 A3019 RMK AO2
KWYS 132115Z AUTO 21003KT 2SM -SN FEW008 M05/M07 A3020 RMK AO2
KWYS 132055Z AUTO 00000KT 2SM -SN FEW008 M06/M07 A3020 RMK AO2 P0001
KWYS 132035Z AUTO 00000KT 1 1/2SM -SN SCT003 SCT008 M06/M07 A3020 RMK AO2
KWYS 132010Z AUTO 00000KT 1/2SM -SN BKN003 M06/M07 A3021 RMK AO2
KWYS 131950Z AUTO 00000KT 1 1/4SM -SN CLR M06/M07 A3022 RMK AO2
KWYS 131935Z AUTO 06003KT 1 1/4SM -SN CLR M07/M08 A3022 RMK AO2
KWYS 131915Z AUTO 06003KT 1 3/4SM -SN SCT003 SCT018 M07/M08 A3024 RMK AO2
KWYS 131855Z AUTO 00000KT 1 1/2SM -SN BKN003 M07/M08 A3025 RMK AO2
KWYS 131835Z AUTO 00000KT 1SM -SN OVC003 M07/M08 A3026 RMK AO2
KWYS 131815Z AUTO 00000KT 1 1/2SM -SN OVC003 M07/M08 A3027 RMK AO2
KWYS 131755Z AUTO 00000KT 1SM -SN OVC003 M08/M09 A3028 RMK AO2
KWYS 131735Z AUTO 00000KT 1/2SM -SN OVC003 M08/M09 A3028 RMK AO2
KWYS 131710Z AUTO 00000KT 10SM SCT019 SCT026 BKN047 M08/M11 A3028 RMK AO2
KWYS 131650Z AUTO 25003KT 10SM SCT050 BKN055 OVC070 M08/M10 A3027 RMK AO2
KWYS 131630Z AUTO 00000KT 10SM OVC070 M08/M11 A3026 RMK AO2
KWYS 131615Z AUTO 00000KT 10SM OVC070 M09/M11 A3026 RMK AO2
KWYS 131555Z AUTO 00000KT 10SM OVC070 M10/M11 A3025 RMK AO2
KWYS 131535Z AUTO 00000KT 10SM OVC070 M10/M12 A3025 RMK AO2
KWYS 131515Z AUTO 00000KT 10SM OVC070 M10/M12 A3026 RMK AO2
KWYS 131455Z AUTO 00000KT 10SM OVC070 M11/M12 A3027 RMK AO2
KWYS 131435Z AUTO 00000KT 10SM OVC070 M11/M13 A3028 RMK AO2
KWYS 131415Z AUTO 00000KT 10SM OVC070 M12/M13 A3028 RMK AO2
KWYS 131355Z AUTO 00000KT 10SM OVC070 M13/M14 A3028 RMK AO2
KWYS 131335Z AUTO 00000KT 10SM OVC075 M14/M16 A3030 RMK AO2
KWYS 131315Z AUTO 00000KT 10SM OVC075 M15/M17 A3030 RMK AO2
KWYS 131255Z AUTO 00000KT 10SM SCT080 M16/M17 A3030 RMK AO2
KWYS 131230Z AUTO 00000KT 10SM CLR M15/M16 A3030 RMK AO2
KWYS 131210Z AUTO 00000KT 10SM CLR M15/M16 A3030 RMK AO2
KWYS 131150Z AUTO 00000KT 10SM CLR M14/M15 A3030 RMK AO2
KWYS 131135Z AUTO 00000KT 10SM FEW075 M14/M15 A3030 RMK AO2
KWYS 131115Z AUTO 00000KT 10SM BKN075 M13/M14 A3030 RMK AO2
KWYS 131055Z AUTO 00000KT 10SM OVC080 M12/M14 A3031 RMK AO2
KWYS 131035Z AUTO 00000KT 10SM OVC080 M12/M14 A3031 RMK AO2
KWYS 131010Z AUTO 00000KT 10SM OVC085 M12/M14 A3032 RMK AO2
KWYS 130950Z AUTO 00000KT 10SM OVC085 M12/M14 A3032 RMK AO2
KWYS 130935Z AUTO 00000KT 10SM BKN090 M12/M13 A3032 RMK AO2
KWYS 130915Z AUTO 00000KT 10SM SCT080 BKN095 M12/M14 A3032 RMK AO2
KWYS 130855Z AUTO 00000KT 10SM OVC075 M12/M13 A3032 RMK AO2
KWYS 130835Z AUTO 00000KT 10SM OVC075 M11/M13 A3032 RMK AO2
KWYS 130815Z AUTO 06004KT 10SM SCT075 M11/M13 A3033 RMK AO2
KWYS 130755Z AUTO 00000KT 10SM FEW046 FEW080 M11/M12 A3032 RMK AO2
KWYS 130735Z AUTO 00000KT 10SM BKN046 M10/M12 A3033 RMK AO2
KWYS 130715Z AUTO 21003KT 10SM SCT046 SCT070 M10/M12 A3033 RMK AO2
KWYS 130650Z AUTO 00000KT 10SM FEW046 SCT075 M09/M12 A3033 RMK AO2
KWYS 130630Z AUTO 00000KT 10SM FEW110 M09/M12 A3033 RMK AO2
KWYS 130610Z AUTO 00000KT 10SM SCT110 M08/M12 A3033 RMK AO2
KWYS 130555Z AUTO 24004KT 10SM BKN100 M06/M10 A3033 RMK AO2
KWYS 130535Z AUTO 00000KT 10SM FEW055 OVC100 M06/M11 A3034 RMK AO2
KWYS 130515Z AUTO 22004KT 10SM SCT055 SCT065 BKN075 M06/M11 A3033 RMK AO2
KWYS 130455Z AUTO 00000KT 10SM FEW046 BKN070 BKN090 M05/M10 A3034 RMK AO2
KWYS 130430Z AUTO 04010KT 10SM BKN044 BKN080 BKN100 M04/M10 A3034 RMK AO2
KWYS 130410Z AUTO 00000KT 10SM SCT100 SCT120 M05/M10 A3032 RMK AO2
KWYS 130350Z AUTO 00000KT 10SM FEW075 BKN095 BKN110 M05/M10 A3033 RMK AO2
KWYS 130335Z AUTO 00000KT 10SM BKN100 BKN120 M05/M10 A3034 RMK AO2
KWYS 130315Z AUTO 00000KT 10SM FEW047 BKN100 OVC120 M04/M10 A3035 RMK AO2
KWYS 130310Z AUTO 00000KT 10SM FEW047 BKN110 M05/M09 A3035 RMK AO2
KWYS 130255Z AUTO 21003KT 10SM FEW049 SCT120 M04/M10 A3035 RMK AO2
KWYS 130250Z AUTO 00000KT 10SM FEW120 M04/M10 A3036 RMK AO2
KWYS 130235Z AUTO 00000KT 10SM CLR M04/M10 A3036 RMK AO2
KWYS 130225Z AUTO 18003KT 10SM FEW050 M05/M11 A3036 RMK AO2
KWYS 130215Z AUTO 00000KT 10SM SCT050 SCT060 M05/M10 A3038 RMK AO2
KWYS 130205Z AUTO 20003KT 10SM BKN055 BKN060 M05/M11 A3037 RMK AO2
KWYS 130150Z AUTO 00000KT 10SM OVC060 M05/M11 A3038 RMK AO2
KWYS 130135Z AUTO 29003KT 10SM BKN060 M04/M10 A3038 RMK AO2
KWYS 130115Z AUTO 00000KT 10SM BKN065 BKN080 M03/M11 A3038 RMK AO2
KWYS 130055Z AUTO 00000KT 10SM FEW060 SCT080 M06/M12 A3037 RMK AO2
KWYS 130035Z AUTO 20005KT 10SM FEW080 M04/M11 A3036 RMK AO2
KWYS 130015Z AUTO 00000KT 10SM CLR M05/M11 A3037 RMK AO2
KWYS 122350Z AUTO VRB03KT 10SM CLR M04/M10 A3037 RMK AO2
KWYS 122335Z AUTO 00000KT 10SM CLR M03/M10 A3037 RMK AO2
KWYS 122315Z AUTO 00000KT 10SM CLR M01/M10 A3037 RMK AO2
KWYS 122255Z AUTO 33003KT 10SM CLR 01/M10 A3038 RMK AO2
KWYS 122235Z AUTO 23006G12KT 10SM CLR 02/M12 A3037 RMK AO2